Time;durP1;ratioP1;P1;durP2;ratioP2;P2;SDS_P1;SDS_P2;PMS_P1;PMS_P2;Temp;Humidity;BMP_temperature;BMP_pressure;BME280_temperature;BME280_humidity;BME280_pressure;Samples;Min_cycle;Max_cycle;Signal;HPM_P1;HPM_P2
2021/09/04 00:01:31;;;;;;;;;16.50;15.50;;;;;24.98;100.00;101258.31;5059650;28;46362;-66
2021/09/04 00:03:57;;;;;;;;;17.50;15.50;;;;;24.93;100.00;101249.75;5059713;28;45381;-66
2021/09/04 00:06:22;;;;;;;;;17.75;16.00;;;;;24.92;100.00;101256.06;5059823;28;45486;-66
2021/09/04 00:08:48;;;;;;;;;17.25;16.00;;;;;24.80;100.00;101234.63;5060005;28;45313;-66
2021/09/04 00:11:14;;;;;;;;;16.00;16.00;;;;;24.84;100.00;101258.34;5059611;28;47334;-65
2021/09/04 00:13:40;;;;;;;;;15.25;15.25;;;;;24.82;100.00;101262.09;5059565;28;45381;-65
2021/09/04 00:16:05;;;;;;;;;16.75;15.50;;;;;24.69;100.00;101246.00;5059752;28;45334;-65
2021/09/04 00:18:33;;;;;;;;;15.50;14.25;;;;;24.63;100.00;101241.06;5059696;28;45257;-65
2021/09/04 00:24:20;;;;;;;;;14.75;13.50;;;;;24.65;100.00;101260.50;5059395;28;45430;-65
2021/09/04 00:26:45;;;;;;;;;17.50;16.00;;;;;24.63;100.00;101257.06;5059881;28;45319;-65
2021/09/04 00:29:11;;;;;;;;;15.25;14.75;;;;;24.64;100.00;101256.97;5059887;28;45393;-66
2021/09/04 00:31:36;;;;;;;;;16.25;15.50;;;;;24.62;100.00;101255.38;5059289;28;45667;-66
2021/09/04 00:34:02;;;;;;;;;13.25;12.00;;;;;24.60;100.00;101257.28;5059105;28;45385;-65
2021/09/04 00:36:27;;;;;;;;;16.00;15.00;;;;;24.62;100.00;101256.22;5059714;28;45213;-66
2021/09/04 00:38:52;;;;;;;;;14.00;13.75;;;;;24.55;100.00;101246.91;5059620;28;45381;-65
2021/09/04 00:41:20;;;;;;;;;16.50;14.25;;;;;24.60;100.00;101251.94;5059098;28;45397;-65
2021/09/04 00:43:45;;;;;;;;;15.25;14.50;;;;;24.58;100.00;101249.38;5059432;28;45550;-65
2021/09/04 00:46:11;;;;;;;;;17.50;17.25;;;;;24.55;100.00;101249.56;5059643;28;45402;-65
2021/09/04 00:48:37;;;;;;;;;15.25;15.25;;;;;24.52;100.00;101248.91;5059736;28;45391;-65
2021/09/04 00:54:24;;;;;;;;;16.50;15.00;;;;;24.40;100.00;101234.53;5059100;28;45312;-65
2021/09/04 00:56:50;;;;;;;;;15.75;15.00;;;;;24.35;100.00;101236.63;5059126;28;45265;-66
2021/09/04 00:59:16;;;;;;;;;13.25;13.00;;;;;24.35;100.00;101233.97;5059345;28;45405;-68
2021/09/04 01:01:41;;;;;;;;;16.75;15.75;;;;;24.25;100.00;101233.69;5058733;28;46183;-66
2021/09/04 01:04:07;;;;;;;;;18.50;15.00;;;;;24.31;100.00;101241.31;5058829;28;45475;-67
2021/09/04 01:06:32;;;;;;;;;14.00;13.00;;;;;24.24;100.00;101228.44;5059281;28;45466;-66
2021/09/04 01:08:58;;;;;;;;;14.25;13.25;;;;;24.24;100.00;101233.78;5059133;28;45383;-66
2021/09/04 01:11:24;;;;;;;;;14.50;13.00;;;;;24.22;100.00;101233.88;5058655;28;46202;-65
2021/09/04 01:13:49;;;;;;;;;15.75;14.75;;;;;24.17;100.00;101227.09;5058944;28;45387;-66
2021/09/04 01:16:15;;;;;;;;;16.25;16.00;;;;;24.09;100.00;101223.13;5058777;28;45423;-66
2021/09/04 01:18:40;;;;;;;;;15.00;13.75;;;;;24.16;100.00;101234.25;5058968;28;45279;-65
2021/09/04 01:24:27;;;;;;;;;16.00;14.25;;;;;24.08;100.00;101231.22;5058589;28;45428;-66
2021/09/04 01:26:53;;;;;;;;;14.50;13.25;;;;;24.14;100.00;101241.50;5058727;28;45333;-65
2021/09/04 01:29:18;;;;;;;;;17.50;15.50;;;;;24.12;100.00;101230.06;5059071;28;45344;-66
2021/09/04 01:31:44;;;;;;;;;14.25;13.50;;;;;24.09;100.00;101231.13;5058246;28;47300;-65
2021/09/04 01:34:10;;;;;;;;;16.00;15.00;;;;;24.08;100.00;101225.88;5058395;28;45368;-66
2021/09/04 01:39:56;;;;;;;;;16.50;16.00;;;;;24.02;100.00;101224.47;5057546;28;45401;-66
2021/09/04 01:42:21;;;;;;;;;16.25;15.25;;;;;23.99;100.00;101218.44;5058053;28;45429;-65
2021/09/04 01:44:47;;;;;;;;;15.25;15.00;;;;;23.93;100.00;101219.69;5058211;28;45324;-65
2021/09/04 01:47:15;;;;;;;;;18.00;15.75;;;;;23.99;100.00;101231.78;5057609;28;45475;-67
2021/09/04 01:49:41;;;;;;;;;15.50;13.00;;;;;23.95;100.00;101230.25;5058708;28;45401;-66
2021/09/04 01:52:06;;;;;;;;;16.00;15.00;;;;;23.78;100.00;101202.84;5057977;28;46581;-65
2021/09/04 01:54:31;;;;;;;;;17.25;14.00;;;;;23.91;100.00;101236.75;5058299;28;45289;-65
2021/09/04 01:57:01;;;;;;;;;15.00;14.00;;;;;23.88;100.00;101234.25;5058249;28;45329;-66
2021/09/04 01:59:26;;;;;;;;;15.00;15.00;;;;;23.85;100.00;101240.66;5058366;28;45313;-65
2021/09/04 02:01:52;;;;;;;;;18.00;17.00;;;;;23.80;100.00;101232.94;5057898;28;46314;-65
2021/09/04 02:04:17;;;;;;;;;16.75;16.00;;;;;23.71;100.00;101224.63;5058024;28;45300;-65
2021/09/04 02:10:06;;;;;;;;;22.50;20.75;;;;;23.70;100.00;101228.25;5057958;28;45242;-65
2021/09/04 02:12:31;;;;;;;;;18.25;18.00;;;;;23.68;100.00;101233.69;5057702;28;47419;-66
2021/09/04 02:14:56;;;;;;;;;21.00;20.50;;;;;23.58;100.00;101223.69;5057957;28;45362;-65
2021/09/04 02:17:22;;;;;;;;;22.00;20.25;;;;;23.52;100.00;101217.72;5058169;28;45358;-65
2021/09/04 02:19:47;;;;;;;;;22.00;21.50;;;;;23.58;100.00;101234.34;5057735;28;45543;-65
2021/09/04 02:22:13;;;;;;;;;21.25;20.50;;;;;23.51;100.00;101226.66;5057924;28;46275;-65
2021/09/04 02:24:39;;;;;;;;;19.50;18.25;;;;;23.51;100.00;101224.00;5057569;28;45340;-65
2021/09/04 02:27:07;;;;;;;;;21.00;19.50;;;;;23.45;100.00;101216.38;5057989;28;45335;-66
2021/09/04 02:29:33;;;;;;;;;22.50;22.25;;;;;23.47;100.00;101217.13;5058266;28;45516;-65
2021/09/04 02:31:59;;;;;;;;;22.50;19.25;;;;;23.42;100.00;101215.72;5057689;28;46204;-65
2021/09/04 02:34:24;;;;;;;;;24.25;21.75;;;;;23.39;100.00;101218.56;5057496;28;45424;-65
2021/09/04 02:40:12;;;;;;;;;23.25;21.00;;;;;23.36;100.00;101224.94;5057030;28;45507;-65
2021/09/04 02:42:38;;;;;;;;;26.00;24.00;;;;;23.32;100.00;101228.75;5057345;28;47548;-66
2021/09/04 02:45:04;;;;;;;;;24.00;23.25;;;;;23.29;100.00;101223.56;5057640;28;45278;-66
2021/09/04 02:47:29;;;;;;;;;24.50;20.25;;;;;23.30;100.00;101233.28;5057381;28;45472;-65
2021/09/04 02:49:55;;;;;;;;;21.75;18.25;;;;;23.18;100.00;101207.38;5057513;28;45531;-65
2021/09/04 02:52:20;;;;;;;;;29.00;24.50;;;;;23.26;100.00;101225.56;5057310;28;45314;-65
2021/09/04 02:54:45;;;;;;;;;21.50;20.00;;;;;23.21;100.00;101216.03;5039121;28;45317;-65
2021/09/04 02:57:11;;;;;;;;;22.25;22.00;;;;;23.21;100.00;101220.50;5057062;28;45504;-65
2021/09/04 02:59:36;;;;;;;;;23.75;23.50;;;;;23.20;100.00;101213.47;5056692;28;45298;-65
2021/09/04 03:02:02;;;;;;;;;25.25;23.75;;;;;23.25;100.00;101230.03;5056946;28;46555;-65
2021/09/04 03:04:27;;;;;;;;;25.50;20.25;;;;;23.19;100.00;101217.09;5057329;28;45297;-65
2021/09/04 03:10:14;;;;;;;;;23.00;20.50;;;;;23.26;100.00;101221.09;5057395;28;45394;-65
2021/09/04 03:12:40;;;;;;;;;15.50;14.00;;;;;23.26;100.00;101222.91;5056889;28;45995;-65
2021/09/04 03:15:06;;;;;;;;;22.50;20.25;;;;;23.25;100.00;101229.19;5039314;28;45235;-65
2021/09/04 03:17:31;;;;;;;;;21.50;20.50;;;;;23.23;100.00;101223.94;5057033;28;45313;-66
2021/09/04 03:19:56;;;;;;;;;22.25;22.25;;;;;23.19;100.00;101217.94;5057333;28;45345;-65
2021/09/04 03:22:22;;;;;;;;;25.00;22.00;;;;;23.21;100.00;101225.84;5056840;28;47009;-65
2021/09/04 03:24:47;;;;;;;;;28.75;24.75;;;;;23.15;100.00;101215.56;5057044;28;45405;-64
2021/09/04 03:27:12;;;;;;;;;21.00;20.00;;;;;23.17;100.00;101225.16;5056980;28;45376;-65
2021/09/04 03:29:38;;;;;;;;;23.00;21.00;;;;;23.19;100.00;101227.75;5056866;28;45410;-65
2021/09/04 03:32:03;;;;;;;;;25.25;22.75;;;;;23.14;100.00;101217.38;5056599;28;47411;-65
2021/09/04 03:34:29;;;;;;;;;21.25;21.25;;;;;23.14;100.00;101216.50;5056689;28;45408;-65
2021/09/04 03:40:16;;;;;;;;;20.25;18.50;;;;;23.12;100.00;101218.41;5045772;28;45376;-65
2021/09/04 03:42:42;;;;;;;;;20.25;19.00;;;;;23.09;100.00;101206.13;5036633;28;45617;-65
2021/09/04 03:45:10;;;;;;;;;18.25;17.25;;;;;23.07;100.00;101208.00;5036427;28;45661;-65
2021/09/04 03:47:36;;;;;;;;;16.50;16.00;;;;;23.07;100.00;101212.47;5036697;28;45349;-66
2021/09/04 03:50:01;;;;;;;;;22.00;17.00;;;;;23.12;100.00;101221.06;5036602;28;45278;-65
2021/09/04 03:52:27;;;;;;;;;18.75;17.25;;;;;23.07;100.00;101213.31;5036453;28;46101;-66
2021/09/04 03:54:52;;;;;;;;;15.50;15.50;;;;;23.12;100.00;101229.91;5036584;28;45231;-64
2021/09/04 03:57:20;;;;;;;;;18.75;18.00;;;;;23.09;100.00;101221.25;5036657;28;45261;-65
2021/09/04 03:59:48;;;;;;;;;20.25;19.25;;;;;23.10;100.00;101222.97;5036556;28;45543;-65
2021/09/04 04:02:13;;;;;;;;;17.75;16.25;;;;;23.03;100.00;101213.59;5036048;28;47390;-65
2021/09/04 04:04:39;;;;;;;;;18.75;17.75;;;;;23.04;100.00;101217.97;5036185;28;45460;-65
2021/09/04 04:10:25;;;;;;;;;17.00;15.50;;;;;23.02;100.00;101210.09;5038817;28;45292;-65
2021/09/04 04:12:51;;;;;;;;;20.50;19.00;;;;;23.02;100.00;101206.56;5039556;28;45497;-64
2021/09/04 04:15:16;;;;;;;;;18.00;17.75;;;;;22.86;100.00;101182.66;5039515;28;45340;-65
2021/09/04 04:17:41;;;;;;;;;18.75;16.75;;;;;22.96;100.00;101199.78;5039443;28;45335;-65
2021/09/04 04:20:07;;;;;;;;;19.50;18.50;;;;;22.96;100.00;101205.13;5040013;28;45340;-65
2021/09/04 04:22:33;;;;;;;;;18.00;16.50;;;;;23.00;100.00;101214.63;5039663;28;46589;-65
2021/09/04 04:24:58;;;;;;;;;18.00;16.75;;;;;22.98;100.00;101215.69;5039341;28;45321;-65
2021/09/04 04:27:24;;;;;;;;;18.25;17.75;;;;;22.97;100.00;101216.63;5039674;28;45351;-65
2021/09/04 04:29:50;;;;;;;;;18.75;17.75;;;;;22.91;100.00;101213.38;5039838;28;45333;-65
2021/09/04 04:32:15;;;;;;;;;19.00;17.75;;;;;22.98;100.00;101218.34;5039181;28;47282;-65
2021/09/04 04:34:40;;;;;;;;;18.25;17.00;;;;;22.90;100.00;101200.16;5039390;28;45444;-65
2021/09/04 04:40:27;;;;;;;;;19.00;17.50;;;;;22.90;100.00;101208.16;5040770;28;45397;-65
2021/09/04 04:42:53;;;;;;;;;19.50;17.75;;;;;22.88;100.00;101213.56;5039332;28;45455;-65
2021/09/04 04:45:18;;;;;;;;;17.00;16.00;;;;;22.83;100.00;101202.31;5038958;28;45491;-65
2021/09/04 04:47:44;;;;;;;;;21.25;19.50;;;;;22.85;100.00;101208.38;5039345;28;45433;-65
2021/09/04 04:50:10;;;;;;;;;23.50;20.00;;;;;22.85;100.00;101205.72;5039104;28;45378;-66
2021/09/04 04:52:35;;;;;;;;;21.25;19.75;;;;;22.87;100.00;101218.97;5039101;28;46172;-65
2021/09/04 04:55:00;;;;;;;;;22.75;19.50;;;;;22.86;100.00;101220.78;5038994;28;45347;-65
2021/09/04 04:57:26;;;;;;;;;18.75;18.25;;;;;22.80;100.00;101210.44;5039126;28;45634;-65
2021/09/04 04:59:51;;;;;;;;;20.00;18.25;;;;;22.80;100.00;101209.56;5021092;28;45412;-65
2021/09/04 05:02:17;;;;;;;;;21.50;20.00;;;;;22.85;100.00;101226.19;5054100;28;46304;-65
2021/09/04 05:04:42;;;;;;;;;22.00;19.25;;;;;22.82;100.00;101213.03;5038959;28;45211;-65
2021/09/04 05:10:29;;;;;;;;;17.75;17.00;;;;;22.76;100.00;101216.88;5038713;28;45429;-65
2021/09/04 05:12:54;;;;;;;;;25.00;23.00;;;;;22.81;100.00;101230.81;5038636;28;45504;-65
2021/09/04 05:15:20;;;;;;;;;24.00;20.00;;;;;22.80;100.00;101233.53;5038422;28;45411;-65
2021/09/04 05:17:45;;;;;;;;;22.75;20.00;;;;;22.75;100.00;101228.50;5038462;28;45370;-65
2021/09/04 05:20:11;;;;;;;;;25.50;21.00;;;;;22.77;100.00;101228.41;5038808;28;45388;-65
2021/09/04 05:25:58;;;;;;;;;22.75;20.00;;;;;22.77;100.00;101241.72;5038320;28;45604;-65
2021/09/04 05:28:23;;;;;;;;;20.75;19.00;;;;;22.75;100.00;101236.47;5038357;28;45928;-66
2021/09/04 05:30:49;;;;;;;;;22.25;21.50;;;;;22.76;100.00;101232.00;5038836;28;45349;-65
2021/09/04 05:33:14;;;;;;;;;23.75;22.50;;;;;22.77;100.00;101239.91;5038032;28;46614;-65
2021/09/04 05:35:40;;;;;;;;;23.50;20.25;;;;;22.71;100.00;101232.28;5053609;28;45412;-65
2021/09/04 05:38:05;;;;;;;;;24.50;22.50;;;;;22.75;100.00;101248.94;5038396;28;45352;-64
2021/09/04 05:40:30;;;;;;;;;24.25;19.75;;;;;22.77;100.00;101244.38;5049031;28;45408;-64
2021/09/04 05:42:56;;;;;;;;;24.50;22.25;;;;;22.76;100.00;101246.19;5058616;28;45445;-65
2021/09/04 05:45:21;;;;;;;;;25.00;21.25;;;;;22.66;100.00;101229.03;5058514;28;45302;-65
2021/09/04 05:47:46;;;;;;;;;17.25;17.00;;;;;22.77;100.00;101252.34;5057012;28;45316;-65
2021/09/04 05:50:12;;;;;;;;;20.25;19.75;;;;;22.77;100.00;101253.22;5058442;28;45388;-65
2021/09/04 05:55:59;;;;;;;;;17.50;16.50;;;;;22.72;100.00;101238.47;5058185;28;45373;-65
2021/09/04 05:58:25;;;;;;;;;19.25;17.75;;;;;22.81;100.00;101256.56;5058391;28;45383;-72
2021/09/04 06:00:52;;;;;;;;;20.50;19.50;;;;;22.83;100.00;101252.03;5040078;28;45523;-73
2021/09/04 06:03:18;;;;;;;;;17.75;17.00;;;;;22.86;100.00;101244.75;5058229;28;45595;-73
2021/09/04 06:05:43;;;;;;;;;23.25;19.25;;;;;22.84;100.00;101248.44;5058177;28;45456;-72
2021/09/04 06:08:08;;;;;;;;;20.00;19.00;;;;;22.89;100.00;101252.56;5058330;28;45170;-74
2021/09/04 06:10:34;;;;;;;;;23.25;19.00;;;;;22.88;100.00;101255.31;5058597;28;45317;-73
2021/09/04 06:12:59;;;;;;;;;21.00;19.25;;;;;22.90;100.00;101253.41;5058054;28;46281;-72
2021/09/04 06:15:25;;;;;;;;;21.75;19.25;;;;;22.90;100.00;101250.75;5057972;28;45349;-74
2021/09/04 06:17:50;;;;;;;;;19.75;18.25;;;;;22.94;100.00;101260.28;5058214;28;45222;-72
2021/09/04 06:20:16;;;;;;;;;21.25;20.00;;;;;22.95;100.00;101263.81;5058332;28;45259;-71
2021/09/04 06:26:04;;;;;;;;;25.75;23.25;;;;;22.77;100.00;101244.38;5057595;28;45364;-72
2021/09/04 06:28:30;;;;;;;;;23.25;22.25;;;;;22.87;100.00;101265.09;5058038;28;45218;-71
2021/09/04 06:30:55;;;;;;;;;25.00;21.50;;;;;22.80;100.00;101253.03;5058181;28;45332;-73
2021/09/04 06:33:20;;;;;;;;;21.75;21.75;;;;;22.90;100.00;101262.28;5057191;28;45321;-74
2021/09/04 06:35:46;;;;;;;;;19.50;18.75;;;;;22.86;100.00;101258.06;5057357;28;45266;-73
2021/09/04 06:38:13;;;;;;;;;24.25;22.25;;;;;22.86;100.00;101263.41;5058011;28;45383;-74
2021/09/04 06:40:38;;;;;;;;;23.00;21.00;;;;;22.83;100.00;101255.56;5057545;28;45294;-73
2021/09/04 06:43:04;;;;;;;;;21.75;19.50;;;;;22.86;100.00;101263.41;5057648;28;45438;-74
2021/09/04 06:45:29;;;;;;;;;24.25;22.50;;;;;22.84;100.00;101261.72;5057592;28;45477;-75
2021/09/04 06:47:55;;;;;;;;;23.50;22.75;;;;;22.87;100.00;101270.44;5057525;28;45282;-76
2021/09/04 06:50:20;;;;;;;;;22.25;21.50;;;;;22.80;100.00;101261.03;5057502;28;45413;-74
2021/09/04 06:56:07;;;;;;;;;25.00;22.75;;;;;22.73;100.00;101262.31;5057143;28;45309;-76
2021/09/04 06:58:32;;;;;;;;;26.00;23.00;;;;;22.72;100.00;101265.94;5057493;28;45356;-76
2021/09/04 07:00:58;;;;;;;;;23.25;22.00;;;;;22.76;100.00;101262.16;5057523;28;45345;-76
2021/09/04 07:03:24;;;;;;;;;26.75;24.50;;;;;22.59;100.00;101241.78;5057398;28;45883;-75
2021/09/04 07:05:50;;;;;;;;;24.75;23.25;;;;;22.79;100.00;101271.75;5057086;28;45425;-75
2021/09/04 07:08:15;;;;;;;;;25.25;24.75;;;;;22.79;100.00;101266.44;5057070;28;45356;-76
2021/09/04 07:10:41;;;;;;;;;26.25;23.25;;;;;22.74;100.00;101255.19;5057237;28;45555;-75
2021/09/04 07:13:06;;;;;;;;;25.00;24.00;;;;;22.87;100.00;101270.44;5056632;28;46281;-76
2021/09/04 07:15:32;;;;;;;;;25.25;24.25;;;;;22.89;100.00;101268.53;5057129;28;45290;-76
2021/09/04 07:17:57;;;;;;;;;26.50;26.00;;;;;22.96;100.00;101262.84;5057365;28;45385;-76
2021/09/04 07:20:23;;;;;;;;;24.25;23.00;;;;;22.98;100.00;101260.97;5057178;28;45250;-74
2021/09/04 07:26:09;;;;;;;;;28.25;26.75;;;;;23.18;100.00;101279.31;5056721;28;45372;-73
2021/09/04 07:28:35;;;;;;;;;27.50;26.25;;;;;23.27;100.00;101278.75;5056922;28;45820;-72
2021/09/04 07:31:00;;;;;;;;;28.50;27.00;;;;;23.34;100.00;101268.63;5057258;28;45657;-76
2021/09/04 07:33:27;;;;;;;;;27.50;26.25;;;;;23.44;100.00;101269.78;5056641;28;46439;-66
2021/09/04 07:35:52;;;;;;;;;28.50;26.00;;;;;23.60;100.00;101275.09;5056898;28;45297;-70
2021/09/04 07:38:18;;;;;;;;;27.00;23.75;;;;;23.65;100.00;101262.34;5055506;28;45483;-80
2021/09/04 07:40:44;;;;;;;;;29.75;28.00;;;;;23.80;100.00;101274.75;5044021;28;45305;-79
2021/09/04 07:43:10;;;;;;;;;29.25;25.50;;;;;23.95;100.00;101286.28;5036885;28;46373;-77
2021/09/04 07:45:36;;;;;;;;;29.00;26.25;;;;;24.00;100.00;101262.84;5039403;28;45331;-79
2021/09/04 07:48:01;;;;;;;;;30.75;27.50;;;;;24.22;100.00;101279.25;5040555;28;45357;-79
2021/09/04 07:50:27;;;;;;;;;29.75;26.00;;;;;24.37;100.00;101278.28;5040445;28;45367;-79
2021/09/04 07:56:14;;;;;;;;;30.75;28.00;;;;;24.73;100.00;101260.88;5039823;28;45248;-80
2021/09/04 07:58:39;;;;;;;;;34.00;30.00;;;;;24.87;100.00;101267.97;5040075;28;45279;-78
2021/09/04 08:01:05;;;;;;;;;27.75;26.50;;;;;25.09;100.00;101278.13;5039846;28;45468;-77
2021/09/04 08:03:30;;;;;;;;;43.25;36.75;;;;;25.21;100.00;101278.19;5039757;28;45387;-74
2021/09/04 08:05:56;;;;;;;;;31.00;26.75;;;;;25.29;100.00;101265.16;5039913;28;45268;-75
2021/09/04 08:08:22;;;;;;;;;29.00;28.75;;;;;25.48;100.00;101274.59;5039610;28;45379;-74
2021/09/04 08:10:47;;;;;;;;;37.25;32.00;;;;;25.62;100.00;101278.06;5039764;28;45337;-74
2021/09/04 08:13:13;;;;;;;;;29.75;28.50;;;;;25.79;100.00;101284.94;5039397;28;46150;-74
2021/09/04 08:15:39;;;;;;;;;35.00;31.25;;;;;25.87;100.00;101279.91;5039466;28;45400;-74
2021/09/04 08:18:05;;;;;;;;;38.00;32.50;;;;;25.94;100.00;101259.78;5039541;28;45337;-72
2021/09/04 08:20:31;;;;;;;;;34.75;29.50;;;;;26.18;100.00;101275.06;5039542;28;45347;-74
2021/09/04 08:26:18;;;;;;;;;32.50;30.25;;;;;26.82;100.00;101275.81;5039197;28;45464;-74
2021/09/04 08:28:43;;;;;;;;;35.00;31.00;;;;;26.94;100.00;101282.94;5039532;28;45388;-73
2021/09/04 08:31:09;;;;;;;;;31.25;29.50;;;;;27.00;100.00;101287.88;5039403;28;45455;-73
2021/09/04 08:33:34;;;;;;;;;35.50;31.00;;;;;26.99;100.00;101293.31;5039429;28;45480;-74
2021/09/04 08:35:59;;;;;;;;;33.50;29.25;;;;;26.90;100.00;101285.94;5039194;28;45321;-74
2021/09/04 08:41:46;;;;;;;;;37.75;33.25;;;;;26.73;100.00;101292.56;5057609;28;45408;-73
2021/09/04 08:44:12;;;;;;;;;33.75;29.75;;;;;26.78;100.00;101303.81;5058918;28;47041;-74
2021/09/04 08:46:38;;;;;;;;;36.50;32.00;;;;;26.82;100.00;101305.28;5059047;28;45392;-73
2021/09/04 08:49:06;;;;;;;;;37.50;32.00;;;;;26.86;100.00;101312.97;5059334;28;45429;-74
2021/09/04 08:51:32;;;;;;;;;33.50;30.75;;;;;26.92;100.00;101311.66;5059350;28;45439;-73
2021/09/04 08:53:58;;;;;;;;;35.00;31.50;;;;;26.97;100.00;101306.84;5059145;28;46410;-74
2021/09/04 08:56:23;;;;;;;;;37.25;30.25;;;;;27.14;100.00;101310.97;5058810;28;45348;-74
2021/09/04 08:58:49;;;;;;;;;38.50;32.75;;;;;27.27;100.00;101313.59;5058893;28;45317;-73
2021/09/04 09:01:16;;;;;;;;;30.00;28.25;;;;;27.30;100.00;101311.53;5059083;28;45432;-73
2021/09/04 09:03:43;;;;;;;;;39.25;32.00;;;;;27.26;100.00;101302.00;5058973;28;46328;-74
2021/09/04 09:06:09;;;;;;;;;35.50;30.25;;;;;27.52;100.00;101313.44;5058744;28;45379;-74
2021/09/04 09:11:57;;;;;;;;;32.25;29.00;;;;;28.51;100.00;101313.72;5058972;28;45326;-74
2021/09/04 09:14:25;;;;;;;;;28.50;27.00;;;;;28.82;100.00;101295.97;5058786;28;46552;-74
2021/09/04 09:16:58;;;;;;;;;33.25;30.25;;;;;29.12;100.00;101319.50;5058921;28;45595;-74
2021/09/04 09:19:39;;;;;;;;;35.75;31.50;;;;;29.23;100.00;101324.00;5057760;28;45330;-74
2021/09/04 09:22:16;;;;;;;;;35.00;31.00;;;;;29.47;100.00;101324.66;5059214;28;45412;-75
2021/09/04 09:24:42;;;;;;;;;38.50;32.00;;;;;29.74;100.00;101317.91;5058754;28;46617;-73
2021/09/04 09:27:07;;;;;;;;;32.75;30.00;;;;;30.35;100.00;101318.84;5058823;28;45327;-74
2021/09/04 09:29:35;;;;;;;;;32.00;28.50;;;;;30.88;100.00;101320.44;5058877;28;45399;-75
2021/09/04 09:32:02;;;;;;;;;32.00;26.75;;;;;31.42;100.00;101324.47;5058945;28;45396;-75
2021/09/04 09:34:28;;;;;;;;;27.25;25.75;;;;;31.89;100.00;101315.50;5058664;28;45494;-74
2021/09/04 09:36:59;;;;;;;;;26.75;23.50;;;;;32.80;100.00;101308.47;5058409;28;45285;-75
2021/09/04 09:39:27;;;;;;;;;29.50;28.00;;;;;33.79;100.00;101317.34;5058746;28;45326;-75
2021/09/04 09:41:53;;;;;;;;;23.75;23.00;;;;;34.32;100.00;101321.75;5058288;28;45297;-75
2021/09/04 09:44:24;;;;;;;;;24.75;23.50;;;;;33.92;97.99;101299.81;5058365;28;46308;-74
2021/09/04 09:46:54;;;;;;;;;23.75;22.00;;;;;33.72;97.87;101316.28;5058407;28;45336;-68
2021/09/04 09:49:34;;;;;;;;;21.50;21.25;;;;;33.46;98.53;101313.53;5058580;28;45435;-72
2021/09/04 09:52:02;;;;;;;;;21.00;18.25;;;;;33.53;98.84;101312.91;5058469;28;45270;-71
2021/09/04 09:54:31;;;;;;;;;18.50;17.75;;;;;33.51;97.08;101313.09;5058160;28;46238;-73
2021/09/04 09:56:58;;;;;;;;;19.25;17.75;;;;;33.82;97.52;101313.47;5058138;28;45359;-76
2021/09/04 09:59:28;;;;;;;;;22.00;17.00;;;;;34.18;95.04;101316.94;5058031;28;45352;-69
2021/09/04 10:01:55;;;;;;;;;19.25;19.25;;;;;34.74;94.04;101301.09;5058078;28;45370;-68
2021/09/04 10:04:28;;;;;;;;;21.00;18.25;;;;;35.55;90.79;101312.94;5057769;28;46072;-68
2021/09/04 10:06:55;;;;;;;;;15.00;15.00;;;;;36.48;88.13;101301.53;5057202;28;45530;-70
2021/09/04 10:09:22;;;;;;;;;16.25;15.50;;;;;37.45;83.68;101282.88;5058255;28;45324;-70
2021/09/04 10:11:48;;;;;;;;;20.50;19.00;;;;;38.49;80.60;101288.25;5058076;28;45453;-70
2021/09/04 10:14:14;;;;;;;;;15.75;15.50;;;;;39.23;78.36;101292.66;5058037;28;46305;-70
2021/09/04 10:16:40;;;;;;;;;14.25;14.25;;;;;39.56;75.54;101304.72;5057885;28;45344;-69
2021/09/04 10:19:07;;;;;;;;;17.75;13.75;;;;;39.68;73.61;101299.56;5056501;28;45466;-70
2021/09/04 10:21:38;;;;;;;;;17.00;16.75;;;;;40.10;72.93;101291.25;5057842;28;45578;-72
2021/09/04 10:24:05;;;;;;;;;19.25;17.25;;;;;40.94;70.45;101292.84;5039356;28;47316;-71
2021/09/04 10:26:33;;;;;;;;;15.75;13.75;;;;;40.95;68.20;101281.69;5057696;28;45618;-69
2021/09/04 10:29:03;;;;;;;;;16.75;16.75;;;;;40.88;66.55;101297.28;5057703;28;45341;-70
2021/09/04 10:31:53;;;;;;;;;19.00;17.25;;;;;41.00;66.07;101295.63;5057585;28;45510;-72
2021/09/04 10:34:31;;;;;;;;;16.75;14.25;;;;;40.92;65.92;101290.31;5057225;28;46666;-70
2021/09/04 10:37:05;;;;;;;;;18.00;17.00;;;;;40.79;65.64;101295.75;5057422;28;45372;-71
2021/09/04 10:39:57;;;;;;;;;16.75;16.75;;;;;40.65;65.51;101299.50;5057885;28;45409;-71
2021/09/04 10:42:31;;;;;;;;;20.25;18.75;;;;;40.35;65.93;101293.47;5057413;28;45475;-69
2021/09/04 10:45:16;;;;;;;;;24.75;22.00;;;;;40.18;66.51;101298.44;5057179;28;46743;-69
2021/09/04 10:47:52;;;;;;;;;21.25;20.00;;;;;40.31;65.90;101301.25;5057574;28;45261;-67
2021/09/04 10:50:22;;;;;;;;;21.00;19.25;;;;;40.16;65.86;101299.69;5057367;28;45345;-67
2021/09/04 10:52:50;;;;;;;;;17.75;16.00;;;;;39.84;66.00;101301.16;5057675;28;45306;-66
2021/09/04 10:55:20;;;;;;;;;16.75;15.25;;;;;39.52;66.54;101292.50;5057328;28;46188;-66
2021/09/04 10:57:50;;;;;;;;;18.75;18.00;;;;;39.59;67.08;101303.47;5057506;28;45217;-67
2021/09/04 11:00:23;;;;;;;;;16.25;15.00;;;;;39.60;66.74;101310.63;5057006;28;45369;-67
2021/09/04 11:03:01;;;;;;;;;16.50;16.00;;;;;39.75;64.06;101295.84;5057238;28;45412;-67
2021/09/04 11:05:37;;;;;;;;;14.50;14.50;;;;;39.45;65.46;101288.84;5057234;28;46346;-66
2021/09/04 11:08:11;;;;;;;;;16.25;15.50;;;;;39.32;65.46;101280.53;5057270;28;45520;-68
2021/09/04 11:10:40;;;;;;;;;19.50;16.50;;;;;39.54;65.55;101300.50;5057383;28;45275;-67
2021/09/04 11:13:14;;;;;;;;;20.25;18.25;;;;;39.33;65.38;101291.25;5057168;28;45523;-67
2021/09/04 11:15:48;;;;;;;;;14.00;13.00;;;;;39.08;65.90;101287.25;5056640;28;46299;-68
2021/09/04 11:18:18;;;;;;;;;16.25;15.75;;;;;38.85;66.25;101276.47;5056833;28;45294;-68
2021/09/04 11:20:49;;;;;;;;;18.00;18.00;;;;;38.89;66.64;101283.25;5059991;28;45329;-66
2021/09/04 11:23:29;;;;;;;;;17.00;15.75;;;;;39.76;65.63;101281.09;5060775;28;45286;-67
2021/09/04 11:26:01;;;;;;;;;14.25;14.00;;;;;39.93;63.07;101278.06;5060336;28;46172;-67
2021/09/04 11:28:30;;;;;;;;;14.75;14.25;;;;;40.26;62.54;101268.16;5060277;28;45607;-67
2021/09/04 11:30:57;;;;;;;;;17.75;15.50;;;;;40.58;60.65;101265.78;5060449;28;45393;-67
2021/09/04 11:33:22;;;;;;;;;17.00;16.50;;;;;41.10;61.58;101264.22;5060848;28;45289;-67
2021/09/04 11:35:49;;;;;;;;;17.75;16.00;;;;;42.47;58.98;101275.19;5060387;28;45984;-67
2021/09/04 11:38:15;;;;;;;;;13.25;12.75;;;;;43.66;56.13;101269.69;5060383;28;45444;-67
2021/09/04 11:40:43;;;;;;;;;16.75;16.00;;;;;44.78;53.59;101269.44;5058455;28;45315;-67
2021/09/04 11:43:08;;;;;;;;;33.25;29.00;;;;;45.41;50.25;101268.88;5040386;28;45545;-68
2021/09/04 11:45:34;;;;;;;;;13.50;13.50;;;;;44.83;48.81;101256.66;5039896;28;47328;-68
2021/09/04 11:48:10;;;;;;;;;16.50;15.75;;;;;43.86;49.61;101253.00;5040085;28;45338;-68
2021/09/04 11:50:36;;;;;;;;;19.50;19.25;;;;;43.32;49.99;101260.09;5040281;28;45310;-67
2021/09/04 11:53:12;;;;;;;;;23.00;22.50;;;;;42.89;50.02;101253.66;5040289;28;45322;-68
2021/09/04 11:55:39;;;;;;;;;19.00;18.75;;;;;42.49;50.79;101259.34;5039984;28;46606;-68
2021/09/04 11:58:10;;;;;;;;;20.50;20.00;;;;;42.10;50.75;101254.84;5039605;28;45380;-68
2021/09/04 12:00:37;;;;;;;;;20.25;20.25;;;;;41.69;51.81;101242.31;5039953;28;45341;-68
2021/09/04 12:03:05;;;;;;;;;18.75;17.75;;;;;41.43;52.26;101256.88;5039794;28;45391;-72
2021/09/04 12:05:36;;;;;;;;;19.50;18.75;;;;;40.98;54.09;101240.19;5038582;28;47831;-66
2021/09/04 12:08:07;;;;;;;;;22.25;22.00;;;;;40.94;53.48;101252.59;5039276;28;45297;-67
2021/09/04 12:10:35;;;;;;;;;22.00;21.25;;;;;40.99;54.92;101250.09;5039304;28;45415;-70